createdAt,value
2022-10-26T00:02:13.037Z,8.65
2022-10-26T00:04:45.715Z,8.70
2022-10-26T00:07:18.703Z,7.63
2022-10-26T00:09:51.184Z,10.68
2022-10-26T00:12:23.912Z,10.43
2022-10-26T00:14:56.375Z,10.02
2022-10-26T00:17:29.079Z,10.02
2022-10-26T00:20:02.447Z,9.27
2022-10-26T00:22:35.285Z,9.13
2022-10-26T00:25:08.139Z,9.95
2022-10-26T00:27:41.119Z,9.20
2022-10-26T00:30:14.087Z,9.43
2022-10-26T00:32:46.772Z,10.30
2022-10-26T00:35:23.964Z,10.57
2022-10-26T00:37:57.046Z,9.48
2022-10-26T00:40:30.154Z,10.35
2022-10-26T00:43:02.861Z,10.05
2022-10-26T00:45:35.359Z,10.50
2022-10-26T00:48:25.254Z,9.82
2022-10-26T00:51:00.933Z,9.60
2022-10-26T00:53:34.012Z,9.82
2022-10-26T00:56:06.839Z,9.88
2022-10-26T00:58:40.406Z,10.25
2022-10-26T01:01:13.025Z,10.30
2022-10-26T01:03:46.591Z,11.32
2022-10-26T01:06:19.683Z,10.55
2022-10-26T01:08:52.359Z,12.00
2022-10-26T01:11:24.853Z,11.98
2022-10-26T01:13:59.477Z,12.75
2022-10-26T01:16:37.330Z,13.02
2022-10-26T01:22:40.224Z,13.32
2022-10-26T01:25:17.104Z,14.88
2022-10-26T01:27:51.941Z,7.47
2022-10-26T01:30:41.012Z,16.45
2022-10-26T01:33:21.517Z,10.02
2022-10-26T01:36:03.123Z,15.57
2022-10-26T01:38:47.652Z,15.52
2022-10-26T01:42:01.574Z,14.77
2022-10-26T01:44:41.951Z,14.90
2022-10-26T01:47:17.163Z,14.95
2022-10-26T01:49:56.711Z,15.32
2022-10-26T01:52:29.593Z,14.35
2022-10-26T01:55:33.673Z,15.63
2022-10-26T01:58:41.555Z,15.05
2022-10-26T02:01:48.163Z,11.55
2022-10-26T02:04:39.847Z,12.15
2022-10-26T02:07:53.824Z,13.85
2022-10-26T02:11:00.332Z,13.40
2022-10-26T02:13:57.415Z,12.98
2022-10-26T02:16:58.320Z,9.35
2022-10-26T02:19:40.655Z,13.40
2022-10-26T02:22:20.239Z,8.55
2022-10-26T02:24:54.808Z,13.47
2022-10-26T02:27:31.784Z,13.07
2022-10-26T02:30:06.122Z,13.00
2022-10-26T02:32:45.148Z,12.65
2022-10-26T02:35:20.693Z,13.10
2022-10-26T02:37:57.509Z,13.25
2022-10-26T02:40:30.341Z,12.25
2022-10-26T02:43:15.293Z,10.90
2022-10-26T02:45:59.809Z,13.85
2022-10-26T02:48:32.941Z,13.82
2022-10-26T02:51:29.989Z,12.10
2022-10-26T02:54:10.276Z,13.57
2022-10-26T02:56:52.473Z,10.95
2022-10-26T02:59:29.016Z,12.32
2022-10-26T03:02:02.241Z,8.27
2022-10-26T03:04:35.913Z,12.80
2022-10-26T03:07:08.508Z,9.75
2022-10-26T03:09:41.177Z,11.45
2022-10-26T03:12:13.728Z,12.20
2022-10-26T03:14:46.498Z,9.73
2022-10-26T03:17:18.968Z,10.52
2022-10-26T03:19:51.836Z,9.98
2022-10-26T03:22:24.316Z,8.80
2022-10-26T03:24:56.992Z,11.52
2022-10-26T03:27:30.021Z,12.32
2022-10-26T03:30:02.735Z,9.77
2022-10-26T03:32:35.475Z,10.82
2022-10-26T03:35:08.580Z,12.68
2022-10-26T03:37:41.081Z,9.23
2022-10-26T03:40:13.966Z,9.98
2022-10-26T03:42:46.580Z,9.55
2022-10-26T03:45:19.404Z,11.80
2022-10-26T03:47:51.871Z,11.20
2022-10-26T03:50:24.767Z,8.57
2022-10-26T03:52:57.295Z,12.15
2022-10-26T03:55:29.995Z,13.00
2022-10-26T03:58:02.509Z,12.23
2022-10-26T04:00:35.172Z,14.25
2022-10-26T04:03:07.682Z,13.40
2022-10-26T04:05:40.350Z,7.93
2022-10-26T04:08:12.870Z,9.88
2022-10-26T04:10:46.438Z,11.80
2022-10-26T04:13:18.899Z,7.32
2022-10-26T04:15:51.815Z,11.57
2022-10-26T04:18:24.280Z,11.55
2022-10-26T04:21:00.561Z,9.77
2022-10-26T04:23:33.056Z,11.45
2022-10-26T04:26:06.331Z,13.35
2022-10-26T04:28:38.860Z,12.35
2022-10-26T04:31:11.514Z,12.32
2022-10-26T04:33:44.023Z,12.70
2022-10-26T04:36:16.726Z,12.55
2022-10-26T04:38:49.879Z,12.40
2022-10-26T04:41:22.568Z,12.38
2022-10-26T04:43:55.549Z,12.98
2022-10-26T04:46:28.583Z,11.35
2022-10-26T04:49:01.095Z,12.57
2022-10-26T04:51:33.755Z,12.77
2022-10-26T04:54:06.420Z,7.60
2022-10-26T04:56:39.156Z,12.18
2022-10-26T04:59:11.676Z,11.95
2022-10-26T05:01:47.253Z,12.85
2022-10-26T05:04:19.969Z,11.27
2022-10-26T05:06:53.879Z,11.65
2022-10-26T05:09:26.364Z,8.88
2022-10-26T05:12:02.043Z,4.80
2022-10-26T05:14:39.488Z,11.82
2022-10-26T05:17:12.440Z,10.63
2022-10-26T05:19:44.946Z,11.70
2022-10-26T05:22:17.867Z,7.05
2022-10-26T05:24:50.411Z,13.48
2022-10-26T05:27:25.205Z,13.70
2022-10-26T05:29:57.697Z,12.30
2022-10-26T05:32:30.618Z,11.63
2022-10-26T05:35:03.168Z,14.07
2022-10-26T05:37:36.136Z,14.02
2022-10-26T05:40:09.416Z,12.10
2022-10-26T05:42:42.783Z,14.80
2022-10-26T05:45:15.870Z,11.25
2022-10-26T05:47:48.870Z,14.15
2022-10-26T05:50:21.693Z,12.65
2022-10-26T05:52:55.446Z,12.88
2022-10-26T05:55:28.306Z,12.52
2022-10-26T05:58:01.628Z,12.63
2022-10-26T06:00:34.350Z,12.05
2022-10-26T06:03:20.751Z,12.85
2022-10-26T06:06:00.693Z,12.60
2022-10-26T06:08:35.782Z,14.88
2022-10-26T06:11:08.818Z,14.43
2022-10-26T06:13:41.756Z,13.82
2022-10-26T06:16:24.271Z,13.48
2022-10-26T06:18:59.653Z,12.63
2022-10-26T06:21:52.811Z,12.55
2022-10-26T06:24:48.058Z,12.27
2022-10-26T06:27:49.625Z,12.50
2022-10-26T06:30:23.486Z,11.82
2022-10-26T06:33:05.840Z,12.65
2022-10-26T06:36:28.627Z,12.25
2022-10-26T06:39:05.782Z,11.48
2022-10-26T06:41:38.982Z,11.13
2022-10-26T06:44:19.400Z,11.00
2022-10-26T06:47:04.303Z,11.15
2022-10-26T06:49:47.027Z,11.30
2022-10-26T06:52:46.433Z,11.00
2022-10-26T06:55:19.449Z,12.38
2022-10-26T06:57:52.486Z,12.57
2022-10-26T07:00:25.831Z,13.10
2022-10-26T07:02:59.252Z,12.13
2022-10-26T07:05:31.911Z,12.52
2022-10-26T07:08:05.283Z,12.68
2022-10-26T07:10:39.015Z,13.65
2022-10-26T07:13:11.926Z,14.60
2022-10-26T07:15:45.145Z,12.65
2022-10-26T07:18:17.839Z,13.65
2022-10-26T07:20:50.421Z,13.63
2022-10-26T07:23:23.782Z,14.98
2022-10-26T07:25:59.035Z,13.60
2022-10-26T07:28:31.764Z,14.40
2022-10-26T07:31:05.657Z,14.85
2022-10-26T07:33:41.466Z,14.75
2022-10-26T07:36:14.248Z,14.48
2022-10-26T07:38:47.157Z,15.90
2022-10-26T07:41:20.398Z,14.93
2022-10-26T07:43:53.121Z,15.60
2022-10-26T07:46:26.261Z,15.00
2022-10-26T07:48:59.252Z,16.77
2022-10-26T07:51:31.719Z,13.55
2022-10-26T07:54:04.470Z,13.07
2022-10-26T07:56:37.062Z,13.35
2022-10-26T07:59:12.218Z,13.18
2022-10-26T08:01:45.603Z,14.35
2022-10-26T08:04:18.314Z,14.77
2022-10-26T08:06:50.904Z,14.25
2022-10-26T08:09:23.619Z,14.20
2022-10-26T08:11:56.175Z,13.27
2022-10-26T08:14:28.851Z,12.63
2022-10-26T08:17:01.438Z,11.82
2022-10-26T08:19:34.327Z,12.65
2022-10-26T08:22:06.917Z,11.15
2022-10-26T08:24:39.722Z,10.70
2022-10-26T08:27:15.591Z,10.82
2022-10-26T08:29:48.388Z,10.18
2022-10-26T08:32:20.941Z,10.38
2022-10-26T08:34:53.795Z,11.63
2022-10-26T08:37:27.584Z,12.13
2022-10-26T08:40:02.952Z,11.00
2022-10-26T08:42:46.341Z,13.40
2022-10-26T08:45:36.512Z,13.23
2022-10-26T08:48:24.599Z,14.32
2022-10-26T08:51:06.338Z,13.40
2022-10-26T08:54:02.612Z,14.32
2022-10-26T08:56:44.882Z,15.18
2022-10-26T08:59:46.127Z,16.05
2022-10-26T09:02:19.065Z,17.33
2022-10-26T09:04:53.437Z,18.08
2022-10-26T09:08:01.291Z,18.30
2022-10-26T09:10:59.661Z,17.67
2022-10-26T09:13:57.592Z,19.30
2022-10-26T09:16:53.343Z,19.98
2022-10-26T09:20:26.821Z,20.70
2022-10-26T09:23:27.739Z,17.35
2022-10-26T09:26:02.809Z,20.02
2022-10-26T09:28:38.088Z,21.23
2022-10-26T09:31:16.421Z,23.05
2022-10-26T09:33:49.043Z,22.90
2022-10-26T09:36:23.230Z,24.60
2022-10-26T09:39:11.706Z,24.33
2022-10-26T09:41:53.310Z,24.20
2022-10-26T09:44:37.024Z,23.85
2022-10-26T09:47:15.845Z,24.27
2022-10-26T09:49:53.656Z,23.17
2022-10-26T09:52:26.361Z,23.70
2022-10-26T09:54:58.874Z,23.10
2022-10-26T09:57:31.936Z,23.80
2022-10-26T10:00:04.848Z,21.38
2022-10-26T10:02:44.159Z,24.92
2022-10-26T10:05:39.100Z,23.53
2022-10-26T10:08:16.765Z,22.70
2022-10-26T10:11:13.892Z,22.08
2022-10-26T10:13:47.483Z,20.63
2022-10-26T10:16:24.087Z,23.20
2022-10-26T10:18:59.534Z,24.20
2022-10-26T10:21:36.680Z,21.45
2022-10-26T10:24:21.784Z,19.73
2022-10-26T10:27:02.103Z,18.67
2022-10-26T10:29:41.564Z,21.70
2022-10-26T10:32:18.165Z,20.97
2022-10-26T10:34:52.886Z,20.05
2022-10-26T10:37:31.309Z,20.02
2022-10-26T10:40:24.544Z,20.27
2022-10-26T10:43:11.334Z,21.05
2022-10-26T10:45:55.793Z,20.90
2022-10-26T10:48:32.620Z,20.73
2022-10-26T10:51:12.986Z,22.55
2022-10-26T10:53:55.448Z,19.05
2022-10-26T10:56:28.101Z,19.70
2022-10-26T10:59:33.273Z,19.48
2022-10-26T11:02:25.695Z,20.08
2022-10-26T11:05:16.714Z,19.85
2022-10-26T11:07:57.911Z,19.70
2022-10-26T11:10:36.249Z,19.23
2022-10-26T11:13:41.044Z,17.52
2022-10-26T11:17:03.815Z,13.95
2022-10-26T11:20:02.910Z,15.38
2022-10-26T11:22:58.958Z,16.52
2022-10-26T11:25:40.505Z,15.70
2022-10-26T11:28:34.542Z,14.60
2022-10-26T11:31:36.493Z,15.93
2022-10-26T11:34:31.984Z,18.15
2022-10-26T11:40:24.645Z,18.02
2022-10-26T11:43:08.922Z,20.48
2022-10-26T11:45:45.879Z,19.15
2022-10-26T11:48:31.804Z,19.27
2022-10-26T11:51:09.397Z,18.38
2022-10-26T11:53:45.641Z,17.65
2022-10-26T11:56:30.987Z,16.63
2022-10-26T11:59:04.820Z,21.00
2022-10-26T12:01:37.451Z,19.48
2022-10-26T12:04:11.311Z,20.13
2022-10-26T12:06:45.809Z,19.95
2022-10-26T12:09:23.865Z,19.73
2022-10-26T12:12:09.729Z,20.17
2022-10-26T12:14:56.195Z,20.48
2022-10-26T12:17:48.142Z,20.15
2022-10-26T12:20:42.524Z,19.95
2022-10-26T12:23:23.213Z,19.40
2022-10-26T12:26:25.123Z,19.08
2022-10-26T12:29:03.493Z,20.50
2022-10-26T12:31:36.363Z,21.60
2022-10-26T12:34:23.470Z,20.20
2022-10-26T12:36:56.164Z,22.10
2022-10-26T12:39:33.050Z,21.08
2022-10-26T12:42:05.802Z,21.20
2022-10-26T12:45:02.445Z,22.13
2022-10-26T12:47:35.211Z,21.10
2022-10-26T12:50:07.680Z,19.40
2022-10-26T12:52:53.953Z,20.55
2022-10-26T12:55:50.888Z,20.70
2022-10-26T12:58:50.319Z,20.58
2022-10-26T13:01:37.844Z,22.67
2022-10-26T13:05:07.868Z,23.85
2022-10-26T13:07:41.617Z,20.50
2022-10-26T13:10:14.313Z,22.85
2022-10-26T13:12:59.308Z,22.70
2022-10-26T13:15:56.865Z,20.00
2022-10-26T13:18:30.384Z,23.83
2022-10-26T13:21:17.352Z,21.48
2022-10-26T13:24:01.735Z,16.25
2022-10-26T13:27:07.246Z,20.05
2022-10-26T13:30:04.077Z,19.52
2022-10-26T13:32:42.394Z,17.55
2022-10-26T13:35:17.701Z,21.70
2022-10-26T13:37:52.168Z,19.20
2022-10-26T13:40:29.968Z,19.15
2022-10-26T13:43:14.689Z,16.60
2022-10-26T13:45:55.695Z,16.67
2022-10-26T13:48:39.602Z,19.80
2022-10-26T13:51:24.240Z,20.55
2022-10-26T13:54:16.291Z,20.80
2022-10-26T13:57:03.845Z,21.40
2022-10-26T13:59:40.016Z,21.42
2022-10-26T14:02:25.017Z,20.88
2022-10-26T14:05:05.960Z,20.73
2022-10-26T14:07:59.287Z,19.23
2022-10-26T14:10:45.098Z,21.27
2022-10-26T14:13:21.112Z,20.48
2022-10-26T14:15:56.523Z,20.98
2022-10-26T14:18:31.295Z,20.70
2022-10-26T14:21:16.690Z,17.70
2022-10-26T14:23:51.962Z,18.20
2022-10-26T14:26:31.269Z,15.63
2022-10-26T14:29:04.380Z,19.08
2022-10-26T14:31:41.632Z,16.38
2022-10-26T14:34:14.489Z,16.85
2022-10-26T14:37:00.504Z,16.35
2022-10-26T14:39:48.359Z,18.42
2022-10-26T14:42:29.290Z,18.52
2022-10-26T14:45:02.378Z,18.20
2022-10-26T14:47:36.512Z,17.48
2022-10-26T14:50:19.623Z,17.30
2022-10-26T14:52:57.530Z,16.83
2022-10-26T14:55:31.174Z,16.17
2022-10-26T14:58:16.697Z,14.85
2022-10-26T15:01:52.532Z,13.88
2022-10-26T15:04:31.449Z,13.80
2022-10-26T15:07:13.190Z,12.77
2022-10-26T15:09:50.729Z,12.23
2022-10-26T15:12:31.169Z,13.52
2022-10-26T15:15:16.160Z,13.15
2022-10-26T15:17:53.605Z,14.10
2022-10-26T15:20:29.046Z,14.75
2022-10-26T15:23:03.261Z,16.67
2022-10-26T15:25:36.058Z,15.88
2022-10-26T15:28:32.726Z,14.90
2022-10-26T15:31:29.851Z,14.88
2022-10-26T15:34:06.403Z,17.25
2022-10-26T15:36:41.597Z,25.55
2022-10-26T15:39:14.133Z,25.00
2022-10-26T15:41:48.409Z,23.73
2022-10-26T15:44:22.111Z,25.08
2022-10-26T15:47:05.027Z,27.23
2022-10-26T15:49:39.037Z,26.15
2022-10-26T15:52:12.186Z,24.27
2022-10-26T15:54:44.715Z,24.67
2022-10-26T15:57:20.634Z,26.15
2022-10-26T15:59:54.112Z,29.77
2022-10-26T16:02:28.363Z,27.17
2022-10-26T16:05:01.029Z,28.45
2022-10-26T16:07:33.837Z,27.08
2022-10-26T16:10:06.981Z,27.10
2022-10-26T16:12:40.009Z,26.67
2022-10-26T16:15:24.479Z,24.83
2022-10-26T16:17:57.756Z,24.15
2022-10-26T16:20:37.832Z,26.02
2022-10-26T16:23:11.089Z,24.85
2022-10-26T16:25:46.357Z,25.30
2022-10-26T16:28:19.167Z,23.77
2022-10-26T16:30:51.747Z,23.33
2022-10-26T16:33:24.832Z,27.08
2022-10-26T16:35:58.726Z,28.10
2022-10-26T16:38:32.277Z,24.17
2022-10-26T16:41:13.626Z,23.52
2022-10-26T16:43:49.280Z,24.05
2022-10-26T16:46:22.327Z,22.35
2022-10-26T16:48:55.352Z,22.73
2022-10-26T16:51:29.064Z,25.25
2022-10-26T16:54:01.868Z,25.20
2022-10-26T16:56:34.615Z,21.73
2022-10-26T16:59:09.020Z,24.55
2022-10-26T17:01:41.759Z,24.23
2022-10-26T17:04:14.655Z,23.73
2022-10-26T17:06:47.185Z,24.33
2022-10-26T17:09:19.919Z,25.05
2022-10-26T17:11:54.208Z,21.98
2022-10-26T17:14:28.335Z,20.25
2022-10-26T17:17:00.945Z,21.35
2022-10-26T17:19:35.645Z,23.75
2022-10-26T17:22:10.529Z,22.08
2022-10-26T17:24:45.795Z,21.50
2022-10-26T17:27:19.218Z,21.42
2022-10-26T17:29:52.267Z,22.00
2022-10-26T17:32:25.063Z,21.17
2022-10-26T17:34:57.863Z,24.05
2022-10-26T17:37:30.541Z,20.38
2022-10-26T17:40:06.587Z,21.98
2022-10-26T17:42:40.527Z,24.35
2022-10-26T17:45:13.349Z,24.35
2022-10-26T17:47:45.979Z,21.92
2022-10-26T17:50:25.165Z,22.02
2022-10-26T17:52:57.749Z,20.92
2022-10-26T17:55:32.858Z,26.00
2022-10-26T17:58:11.100Z,24.25
2022-10-26T18:00:51.462Z,22.48
2022-10-26T18:03:36.266Z,22.02
2022-10-26T18:06:13.854Z,24.27
2022-10-26T18:08:46.741Z,18.80
2022-10-26T18:11:26.569Z,20.13
2022-10-26T18:14:14.610Z,24.08
2022-10-26T18:16:47.611Z,22.90
2022-10-26T18:19:20.628Z,24.25
2022-10-26T18:21:53.443Z,22.42
2022-10-26T18:24:26.025Z,21.60
2022-10-26T18:26:58.896Z,23.88
2022-10-26T18:29:33.091Z,21.45
2022-10-26T18:32:07.818Z,22.88
2022-10-26T18:34:40.334Z,24.02
2022-10-26T18:37:13.017Z,24.95
2022-10-26T18:39:45.506Z,23.55
2022-10-26T18:42:18.168Z,25.40
2022-10-26T18:44:50.826Z,26.55
2022-10-26T18:47:23.583Z,20.23
2022-10-26T18:49:56.785Z,24.15
2022-10-26T18:52:29.944Z,23.67
2022-10-26T18:55:02.758Z,24.20
2022-10-26T18:57:35.513Z,22.75
2022-10-26T19:00:08.728Z,23.88
2022-10-26T19:02:41.405Z,25.65
2022-10-26T19:05:14.064Z,25.77
2022-10-26T19:07:46.846Z,25.55
2022-10-26T19:10:19.352Z,25.10
2022-10-26T19:12:52.222Z,23.63
2022-10-26T19:15:25.343Z,25.15
2022-10-26T19:17:58.247Z,23.95
2022-10-26T19:20:30.808Z,25.02
2022-10-26T19:23:03.531Z,23.48
2022-10-26T19:25:36.056Z,22.08
2022-10-26T19:28:08.715Z,22.08
2022-10-26T19:30:41.325Z,22.42
2022-10-26T19:33:14.061Z,24.10
2022-10-26T19:35:48.929Z,23.40
2022-10-26T19:38:27.034Z,24.63
2022-10-26T19:41:02.219Z,22.13
2022-10-26T19:43:39.007Z,20.15
2022-10-26T19:46:17.033Z,20.00
2022-10-26T19:48:52.139Z,20.92
2022-10-26T19:51:26.056Z,20.45
2022-10-26T19:54:08.099Z,20.75
2022-10-26T19:57:01.866Z,19.63
2022-10-26T19:59:36.068Z,19.42
2022-10-26T20:02:39.528Z,19.70
2022-10-26T20:05:30.037Z,19.88
2022-10-26T20:08:02.589Z,20.05
2022-10-26T20:10:45.711Z,19.92
2022-10-26T20:13:18.218Z,18.15
2022-10-26T20:15:52.211Z,20.58
2022-10-26T20:18:25.134Z,20.90
2022-10-26T20:20:57.940Z,20.73
2022-10-26T20:23:30.421Z,19.27
2022-10-26T20:26:03.653Z,22.65
2022-10-26T20:28:36.173Z,20.75
2022-10-26T20:31:08.846Z,20.50
2022-10-26T20:33:41.371Z,22.08
2022-10-26T20:36:14.108Z,19.98
2022-10-26T20:38:47.027Z,20.60
2022-10-26T20:41:20.088Z,20.08
2022-10-26T20:43:55.694Z,19.33
2022-10-26T20:46:30.950Z,20.98
2022-10-26T20:49:03.783Z,18.98
2022-10-26T20:52:19.619Z,19.83
2022-10-26T20:54:52.774Z,19.58
2022-10-26T20:57:34.379Z,20.50
2022-10-26T21:00:12.854Z,20.85
2022-10-26T21:02:45.623Z,19.83
2022-10-26T21:05:23.054Z,19.48
2022-10-26T21:07:59.052Z,19.60
2022-10-26T21:10:32.376Z,19.90
2022-10-26T21:13:05.134Z,19.75
2022-10-26T21:15:37.933Z,18.15
2022-10-26T21:18:10.622Z,19.77
2022-10-26T21:20:43.212Z,18.98
2022-10-26T21:23:15.949Z,20.60
2022-10-26T21:25:48.481Z,18.65
2022-10-26T21:28:21.161Z,18.50
2022-10-26T21:30:53.815Z,20.10
2022-10-26T21:33:32.013Z,19.70
2022-10-26T21:36:09.804Z,18.13
2022-10-26T21:38:44.298Z,19.40
2022-10-26T21:41:19.747Z,18.33
2022-10-26T21:44:03.286Z,21.08
2022-10-26T21:46:42.279Z,19.48
2022-10-26T21:49:15.006Z,17.77
2022-10-26T21:51:47.644Z,17.88
2022-10-26T21:54:20.708Z,19.88
2022-10-26T21:56:53.212Z,16.90
2022-10-26T21:59:29.647Z,17.60
2022-10-26T22:02:02.346Z,17.45
2022-10-26T22:04:35.276Z,18.73
2022-10-26T22:07:07.823Z,15.93
2022-10-26T22:09:49.549Z,16.58
2022-10-26T22:12:34.582Z,15.48
2022-10-26T22:15:07.813Z,16.45
2022-10-26T22:17:40.843Z,17.58
2022-10-26T22:20:13.831Z,16.67
2022-10-26T22:22:46.315Z,16.38
2022-10-26T22:25:19.027Z,17.30
2022-10-26T22:27:51.732Z,17.98
2022-10-26T22:30:25.302Z,18.17
2022-10-26T22:32:57.834Z,19.40
2022-10-26T22:35:30.502Z,20.17
2022-10-26T22:38:02.962Z,18.33
2022-10-26T22:40:35.678Z,18.90
2022-10-26T22:43:08.173Z,18.05
2022-10-26T22:45:40.884Z,16.98
2022-10-26T22:48:13.601Z,20.35
2022-10-26T22:50:46.680Z,19.85
2022-10-26T22:53:19.169Z,20.60
2022-10-26T22:55:51.929Z,20.50
2022-10-26T22:58:24.450Z,20.00
2022-10-26T23:01:09.566Z,19.30
2022-10-26T23:03:42.756Z,18.15
2022-10-26T23:06:17.996Z,20.40
2022-10-26T23:09:00.626Z,19.55
2022-10-26T23:15:53.519Z,20.23
2022-10-26T23:25:38.378Z,19.95
2022-10-26T23:28:11.312Z,24.10
2022-10-26T23:30:47.203Z,23.77
2022-10-26T23:33:19.762Z,25.33
2022-10-26T23:35:53.033Z,23.98
2022-10-26T23:38:26.166Z,24.52
2022-10-26T23:41:00.175Z,23.80
2022-10-26T23:43:32.651Z,24.30
2022-10-26T23:46:05.578Z,24.95
2022-10-26T23:48:38.214Z,24.40
2022-10-26T23:51:10.874Z,24.70
2022-10-26T23:53:43.722Z,24.42
2022-10-26T23:56:16.387Z,23.90
2022-10-26T23:58:51.890Z,25.92
